Aviation Digital Data Service (ADDS)

Output produced by METARs form (2229 UTC 23 March 2019)
found at http://www.aviationweather.gov/metar/data/
 
METAR text: TNCM 232200Z 09009KT 050V120 9999 FEW019 27/21 Q1018 NOSIG RMK A3006
Conditions at: TNCM (ST MAARTEN JULIA, VI) observed 2200 UTC 23 March 2019
Temperature: 27.0°C (81°F)
Dewpoint: 21.0°C (70°F) [RH = 70%]
Pressure (altimeter): 30.06 inches Hg (1018.0 mb)
Winds: from the E (90 degrees) at 10 MPH (9 knots; 4.6 m/s)
Visibility: 6 or more miles (10+ km)
Ceiling: at least 12,000 feet AGL
Clouds: few clouds at 1900 feet AGL
Weather: no significant weather observed at this time

METAR text: TNCM 232100Z 10009KT 060V130 9999 SCT020 28/21 Q1017 NOSIG RMK A3005
Conditions at: TNCM (ST MAARTEN JULIA, VI) observed 2100 UTC 23 March 2019
Temperature: 28.0°C (82°F)
Dewpoint: 21.0°C (70°F) [RH = 66%]
Pressure (altimeter): 30.03 inches Hg (1017.0 mb)
Winds: from the E (100 degrees) at 10 MPH (9 knots; 4.6 m/s)
Visibility: 6 or more miles (10+ km)
Ceiling: at least 12,000 feet AGL
Clouds: scattered clouds at 2000 feet AGL
Weather: no significant weather observed at this time

METAR text: TNCM 232000Z 10011KT 070V130 9999 FEW020 28/20 Q1017 NOSIG RMK A3005
Conditions at: TNCM (ST MAARTEN JULIA, VI) observed 2000 UTC 23 March 2019
Temperature: 28.0°C (82°F)
Dewpoint: 20.0°C (68°F) [RH = 62%]
Pressure (altimeter): 30.03 inches Hg (1017.0 mb)
Winds: from the E (100 degrees) at 13 MPH (11 knots; 5.7 m/s)
Visibility: 6 or more miles (10+ km)
Ceiling: at least 12,000 feet AGL
Clouds: few clouds at 2000 feet AGL
Weather: no significant weather observed at this time

METAR text: TNCM 231900Z 13011KT 090V160 9999 FEW020 28/21 Q1018 NOSIG RMK A3006
Conditions at: TNCM (ST MAARTEN JULIA, VI) observed 1900 UTC 23 March 2019
Temperature: 28.0°C (82°F)
Dewpoint: 21.0°C (70°F) [RH = 66%]
Pressure (altimeter): 30.06 inches Hg (1018.0 mb)
Winds: from the SE (130 degrees) at 13 MPH (11 knots; 5.7 m/s)
Visibility: 6 or more miles (10+ km)
Ceiling: at least 12,000 feet AGL
Clouds: few clouds at 2000 feet AGL
Weather: no significant weather observed at this time

METAR text: TNCM 231800Z 13011KT 090V160 9999 FEW022 28/21 Q1018 NOSIG RMK A3008
Conditions at: TNCM (ST MAARTEN JULIA, VI) observed 1800 UTC 23 March 2019
Temperature: 28.0°C (82°F)
Dewpoint: 21.0°C (70°F) [RH = 66%]
Pressure (altimeter): 30.06 inches Hg (1018.0 mb)
Winds: from the SE (130 degrees) at 13 MPH (11 knots; 5.7 m/s)
Visibility: 6 or more miles (10+ km)
Ceiling: at least 12,000 feet AGL
Clouds: few clouds at 2200 feet AGL
Weather: no significant weather observed at this time

METAR text: TNCM 231700Z 12010KT 080V170 9999 FEW022 28/21 Q1019 NOSIG RMK A3011
Conditions at: TNCM (ST MAARTEN JULIA, VI) observed 1700 UTC 23 March 2019
Temperature: 28.0°C (82°F)
Dewpoint: 21.0°C (70°F) [RH = 66%]
Pressure (altimeter): 30.09 inches Hg (1019.0 mb)
Winds: from the ESE (120 degrees) at 12 MPH (10 knots; 5.1 m/s)
Visibility: 6 or more miles (10+ km)
Ceiling: at least 12,000 feet AGL
Clouds: few clouds at 2200 feet AGL
Weather: no significant weather observed at this time

METAR text: TNCM 231600Z 12012KT 090V160 9999 FEW022 28/20 Q1020 NOSIG RMK A3013
Conditions at: TNCM (ST MAARTEN JULIA, VI) observed 1600 UTC 23 March 2019
Temperature: 28.0°C (82°F)
Dewpoint: 20.0°C (68°F) [RH = 62%]
Pressure (altimeter): 30.12 inches Hg (1020.0 mb)
Winds: from the ESE (120 degrees) at 14 MPH (12 knots; 6.2 m/s)
Visibility: 6 or more miles (10+ km)
Ceiling: at least 12,000 feet AGL
Clouds: few clouds at 2200 feet AGL
Weather: no significant weather observed at this time

METAR text: TNCM 231500Z 12014KT 080V150 9999 FEW022 28/20 Q1020 NOSIG RMK A3014
Conditions at: TNCM (ST MAARTEN JULIA, VI) observed 1500 UTC 23 March 2019
Temperature: 28.0°C (82°F)
Dewpoint: 20.0°C (68°F) [RH = 62%]
Pressure (altimeter): 30.12 inches Hg (1020.0 mb)
Winds: from the ESE (120 degrees) at 16 MPH (14 knots; 7.2 m/s)
Visibility: 6 or more miles (10+ km)
Ceiling: at least 12,000 feet AGL
Clouds: few clouds at 2200 feet AGL
Weather: no significant weather observed at this time

METAR text: TNCM 231400Z 11011KT 070V140 9999 FEW022 28/20 Q1020 NOSIG RMK A3013
Conditions at: TNCM (ST MAARTEN JULIA, VI) observed 1400 UTC 23 March 2019
Temperature: 28.0°C (82°F)
Dewpoint: 20.0°C (68°F) [RH = 62%]
Pressure (altimeter): 30.12 inches Hg (1020.0 mb)
Winds: from the ESE (110 degrees) at 13 MPH (11 knots; 5.7 m/s)
Visibility: 6 or more miles (10+ km)
Ceiling: at least 12,000 feet AGL
Clouds: few clouds at 2200 feet AGL
Weather: no significant weather observed at this time

METAR text: TNCM 231300Z 11009KT 070V150 9999 FEW022 27/21 Q1019 NOSIG RMK A3011
Conditions at: TNCM (ST MAARTEN JULIA, VI) observed 1300 UTC 23 March 2019
Temperature: 27.0°C (81°F)
Dewpoint: 21.0°C (70°F) [RH = 70%]
Pressure (altimeter): 30.09 inches Hg (1019.0 mb)
Winds: from the ESE (110 degrees) at 10 MPH (9 knots; 4.6 m/s)
Visibility: 6 or more miles (10+ km)
Ceiling: at least 12,000 feet AGL
Clouds: few clouds at 2200 feet AGL
Weather: no significant weather observed at this time

METAR text: TNCM 231200Z 10010KT 050V130 9999 FEW022 27/20 Q1019 NOSIG RMK A3009
Conditions at: TNCM (ST MAARTEN JULIA, VI) observed 1200 UTC 23 March 2019
Temperature: 27.0°C (81°F)
Dewpoint: 20.0°C (68°F) [RH = 66%]
Pressure (altimeter): 30.09 inches Hg (1019.0 mb)
Winds: from the E (100 degrees) at 12 MPH (10 knots; 5.1 m/s)
Visibility: 6 or more miles (10+ km)
Ceiling: at least 12,000 feet AGL
Clouds: few clouds at 2200 feet AGL
Weather: no significant weather observed at this time

METAR text: TNCM 231100Z 09009KT 060V120 9999 SCT017 25/20 Q1018 A3007 NOSIG
Conditions at: TNCM (ST MAARTEN JULIA, VI) observed 1100 UTC 23 March 2019
Temperature: 25.0°C (77°F)
Dewpoint: 20.0°C (68°F) [RH = 74%]
Pressure (altimeter): 30.06 inches Hg (1018.0 mb)
Winds: from the E (90 degrees) at 10 MPH (9 knots; 4.6 m/s)
Visibility: 6 or more miles (10+ km)
Ceiling: at least 12,000 feet AGL
Clouds: scattered clouds at 1700 feet AGL
Weather: no significant weather observed at this time

METAR text: TNCM 231000Z 09009KT 050V140 9999 FEW020 25/20 Q1017 A3006 NOSIG
Conditions at: TNCM (ST MAARTEN JULIA, VI) observed 1000 UTC 23 March 2019
Temperature: 25.0°C (77°F)
Dewpoint: 20.0°C (68°F) [RH = 74%]
Pressure (altimeter): 30.03 inches Hg (1017.0 mb)
Winds: from the E (90 degrees) at 10 MPH (9 knots; 4.6 m/s)
Visibility: 6 or more miles (10+ km)
Ceiling: at least 12,000 feet AGL
Clouds: few clouds at 2000 feet AGL
Weather: no significant weather observed at this time

METAR text: TNCM 230900Z 08008KT 050V110 9999 FEW020 25/20 Q1017 A3004
Conditions at: TNCM (ST MAARTEN JULIA, VI) observed 0900 UTC 23 March 2019
Temperature: 25.0°C (77°F)
Dewpoint: 20.0°C (68°F) [RH = 74%]
Pressure (altimeter): 30.03 inches Hg (1017.0 mb)
Winds: from the E (80 degrees) at 9 MPH (8 knots; 4.1 m/s)
Visibility: 6 or more miles (10+ km)
Ceiling: at least 12,000 feet AGL
Clouds: few clouds at 2000 feet AGL
Weather: no significant weather observed at this time

METAR text: TNCM 230800Z 10007KT 040V130 9999 SCT018 25/20 Q1017 A3003
Conditions at: TNCM (ST MAARTEN JULIA, VI) observed 0800 UTC 23 March 2019
Temperature: 25.0°C (77°F)
Dewpoint: 20.0°C (68°F) [RH = 74%]
Pressure (altimeter): 30.03 inches Hg (1017.0 mb)
Winds: from the E (100 degrees) at 8 MPH (7 knots; 3.6 m/s)
Visibility: 6 or more miles (10+ km)
Ceiling: at least 12,000 feet AGL
Clouds: scattered clouds at 1800 feet AGL
Weather: no significant weather observed at this time

METAR text: TNCM 230700Z 10008KT 060V140 9999 BKN016 SCT030 25/20 Q1017 A3003 RERA
Conditions at: TNCM (ST MAARTEN JULIA, VI) observed 0700 UTC 23 March 2019
Temperature: 25.0°C (77°F)
Dewpoint: 20.0°C (68°F) [RH = 74%]
Pressure (altimeter): 30.03 inches Hg (1017.0 mb)
Winds: from the E (100 degrees) at 9 MPH (8 knots; 4.1 m/s)
Visibility: 6 or more miles (10+ km)
Ceiling: 1600 feet AGL
Clouds: broken clouds at 1600 feet AGL
scattered clouds at 3000 feet AGL
Weather: no significant weather observed at this time

METAR text: TNCM 230600Z 10009KT 060V130 9999 FEW018 25/20 Q1017 A3004
Conditions at: TNCM (ST MAARTEN JULIA, VI) observed 0600 UTC 23 March 2019
Temperature: 25.0°C (77°F)
Dewpoint: 20.0°C (68°F) [RH = 74%]
Pressure (altimeter): 30.03 inches Hg (1017.0 mb)
Winds: from the E (100 degrees) at 10 MPH (9 knots; 4.6 m/s)
Visibility: 6 or more miles (10+ km)
Ceiling: at least 12,000 feet AGL
Clouds: few clouds at 1800 feet AGL
Weather: no significant weather observed at this time

METAR text: TNCM 230500Z 11012KT 060V140 9999 FEW018 26/20 Q1018 A3006
Conditions at: TNCM (ST MAARTEN JULIA, VI) observed 0500 UTC 23 March 2019
Temperature: 26.0°C (79°F)
Dewpoint: 20.0°C (68°F) [RH = 70%]
Pressure (altimeter): 30.06 inches Hg (1018.0 mb)
Winds: from the ESE (110 degrees) at 14 MPH (12 knots; 6.2 m/s)
Visibility: 6 or more miles (10+ km)
Ceiling: at least 12,000 feet AGL
Clouds: few clouds at 1800 feet AGL
Weather: no significant weather observed at this time

METAR text: TNCM 230400Z 11011KT 070V160 9999 FEW018 26/20 Q1018 A3007
Conditions at: TNCM (ST MAARTEN JULIA, VI) observed 0400 UTC 23 March 2019
Temperature: 26.0°C (79°F)
Dewpoint: 20.0°C (68°F) [RH = 70%]
Pressure (altimeter): 30.06 inches Hg (1018.0 mb)
Winds: from the ESE (110 degrees) at 13 MPH (11 knots; 5.7 m/s)
Visibility: 6 or more miles (10+ km)
Ceiling: at least 12,000 feet AGL
Clouds: few clouds at 1800 feet AGL
Weather: no significant weather observed at this time

METAR text: TNCM 230300Z 11013KT 080V150 9999 FEW020 26/20 Q1018 A3007
Conditions at: TNCM (ST MAARTEN JULIA, VI) observed 0300 UTC 23 March 2019
Temperature: 26.0°C (79°F)
Dewpoint: 20.0°C (68°F) [RH = 70%]
Pressure (altimeter): 30.06 inches Hg (1018.0 mb)
Winds: from the ESE (110 degrees) at 15 MPH (13 knots; 6.7 m/s)
Visibility: 6 or more miles (10+ km)
Ceiling: at least 12,000 feet AGL
Clouds: few clouds at 2000 feet AGL
Weather: no significant weather observed at this time

METAR text: TNCM 230200Z 10013KT 060V140 9999 FEW020 26/21 Q1018 RMK A3007
Conditions at: TNCM (ST MAARTEN JULIA, VI) observed 0200 UTC 23 March 2019
Temperature: 26.0°C (79°F)
Dewpoint: 21.0°C (70°F) [RH = 74%]
Pressure (altimeter): 30.06 inches Hg (1018.0 mb)
Winds: from the E (100 degrees) at 15 MPH (13 knots; 6.7 m/s)
Visibility: 6 or more miles (10+ km)
Ceiling: at least 12,000 feet AGL
Clouds: few clouds at 2000 feet AGL
Weather: no significant weather observed at this time

METAR text: TNCM 230100Z 11012KT 070V150 9999 FEW020 26/21 Q1017 NOSIG RMK A3005
Conditions at: TNCM (ST MAARTEN JULIA, VI) observed 0100 UTC 23 March 2019
Temperature: 26.0°C (79°F)
Dewpoint: 21.0°C (70°F) [RH = 74%]
Pressure (altimeter): 30.03 inches Hg (1017.0 mb)
Winds: from the ESE (110 degrees) at 14 MPH (12 knots; 6.2 m/s)
Visibility: 6 or more miles (10+ km)
Ceiling: at least 12,000 feet AGL
Clouds: few clouds at 2000 feet AGL
Weather: no significant weather observed at this time

METAR text: TNCM 230000Z 10013KT 070V140 9999 FEW022 26/21 Q1017 NOSIG RMK A3003
Conditions at: TNCM (ST MAARTEN JULIA, VI) observed 0000 UTC 23 March 2019
Temperature: 26.0°C (79°F)
Dewpoint: 21.0°C (70°F) [RH = 74%]
Pressure (altimeter): 30.03 inches Hg (1017.0 mb)
Winds: from the E (100 degrees) at 15 MPH (13 knots; 6.7 m/s)
Visibility: 6 or more miles (10+ km)
Ceiling: at least 12,000 feet AGL
Clouds: few clouds at 2200 feet AGL
Weather: no significant weather observed at this time

METAR text: TNCM 222300Z 11012KT 070V150 9999 FEW022 26/21 Q1016 NOSIG RMK A3002
Conditions at: TNCM (ST MAARTEN JULIA, VI) observed 2300 UTC 22 March 2019
Temperature: 26.0°C (79°F)
Dewpoint: 21.0°C (70°F) [RH = 74%]
Pressure (altimeter): 30.00 inches Hg (1016.0 mb)
Winds: from the ESE (110 degrees) at 14 MPH (12 knots; 6.2 m/s)
Visibility: 6 or more miles (10+ km)
Ceiling: at least 12,000 feet AGL
Clouds: few clouds at 2200 feet AGL
Weather: no significant weather observed at this time

METAR text: TNCM 222200Z 11011KT 080V160 9999 FEW020 27/21 Q1016 NOSIG RMK A3000
Conditions at: TNCM (ST MAARTEN JULIA, VI) observed 2200 UTC 22 March 2019
Temperature: 27.0°C (81°F)
Dewpoint: 21.0°C (70°F) [RH = 70%]
Pressure (altimeter): 30.00 inches Hg (1016.0 mb)
Winds: from the ESE (110 degrees) at 13 MPH (11 knots; 5.7 m/s)
Visibility: 6 or more miles (10+ km)
Ceiling: at least 12,000 feet AGL
Clouds: few clouds at 2000 feet AGL
Weather: no significant weather observed at this time

METAR text: TNCM 222100Z 12012KT 080V150 9999 FEW022 27/20 Q1015 NOSIG RMK A2999
Conditions at: TNCM (ST MAARTEN JULIA, VI) observed 2100 UTC 22 March 2019
Temperature: 27.0°C (81°F)
Dewpoint: 20.0°C (68°F) [RH = 66%]
Pressure (altimeter): 29.97 inches Hg (1015.0 mb)
Winds: from the ESE (120 degrees) at 14 MPH (12 knots; 6.2 m/s)
Visibility: 6 or more miles (10+ km)
Ceiling: at least 12,000 feet AGL
Clouds: few clouds at 2200 feet AGL
Weather: no significant weather observed at this time

METAR text: TNCM 222000Z 12012KT 070V150 9999 FEW022 28/21 Q1015 NOSIG RMK A2999
Conditions at: TNCM (ST MAARTEN JULIA, VI) observed 2000 UTC 22 March 2019
Temperature: 28.0°C (82°F)
Dewpoint: 21.0°C (70°F) [RH = 66%]
Pressure (altimeter): 29.97 inches Hg (1015.0 mb)
Winds: from the ESE (120 degrees) at 14 MPH (12 knots; 6.2 m/s)
Visibility: 6 or more miles (10+ km)
Ceiling: at least 12,000 feet AGL
Clouds: few clouds at 2200 feet AGL
Weather: no significant weather observed at this time

METAR text: TNCM 221900Z 10010KT 070V130 9999 FEW022 29/21 Q1016 A3000
Conditions at: TNCM (ST MAARTEN JULIA, VI) observed 1900 UTC 22 March 2019
Temperature: 29.0°C (84°F)
Dewpoint: 21.0°C (70°F) [RH = 62%]
Pressure (altimeter): 30.00 inches Hg (1016.0 mb)
Winds: from the E (100 degrees) at 12 MPH (10 knots; 5.1 m/s)
Visibility: 6 or more miles (10+ km)
Ceiling: at least 12,000 feet AGL
Clouds: few clouds at 2200 feet AGL
Weather: no significant weather observed at this time

METAR text: TNCM 221800Z 10010KTB 060V150 9999 FEW022 29/20 Q1016 NOSIG RMK A3002
Conditions at: TNCM (ST MAARTEN JULIA, VI) observed 1800 UTC 22 March 2019
Temperature: 29.0°C (84°F)
Dewpoint: 20.0°C (68°F) [RH = 58%]
Pressure (altimeter): 30.00 inches Hg (1016.0 mb)
Winds: missing
Visibility: 6 or more miles (10+ km)
Ceiling: at least 12,000 feet AGL
Clouds: few clouds at 2200 feet AGL
Weather: no significant weather observed at this time

METAR text: TNCM 221700Z 11012KT 080V150 9999 FEW022 29/18 Q1017 A3005 NOSIG
Conditions at: TNCM (ST MAARTEN JULIA, VI) observed 1700 UTC 22 March 2019
Temperature: 29.0°C (84°F)
Dewpoint: 18.0°C (64°F) [RH = 52%]
Pressure (altimeter): 30.03 inches Hg (1017.0 mb)
Winds: from the ESE (110 degrees) at 14 MPH (12 knots; 6.2 m/s)
Visibility: 6 or more miles (10+ km)
Ceiling: at least 12,000 feet AGL
Clouds: few clouds at 2200 feet AGL
Weather: no significant weather observed at this time

METAR text: TNCM 221600Z 13013KT 100V160 9999 FEW022 28/20 Q1018 A3006 NOSIG
Conditions at: TNCM (ST MAARTEN JULIA, VI) observed 1600 UTC 22 March 2019
Temperature: 28.0°C (82°F)
Dewpoint: 20.0°C (68°F) [RH = 62%]
Pressure (altimeter): 30.06 inches Hg (1018.0 mb)
Winds: from the SE (130 degrees) at 15 MPH (13 knots; 6.7 m/s)
Visibility: 6 or more miles (10+ km)
Ceiling: at least 12,000 feet AGL
Clouds: few clouds at 2200 feet AGL
Weather: no significant weather observed at this time

METAR text: TNCM 221500Z 10011KT 060V150 9999 FEW022 29/20 Q1018 A3008 NOSIG
Conditions at: TNCM (ST MAARTEN JULIA, VI) observed 1500 UTC 22 March 2019
Temperature: 29.0°C (84°F)
Dewpoint: 20.0°C (68°F) [RH = 58%]
Pressure (altimeter): 30.06 inches Hg (1018.0 mb)
Winds: from the E (100 degrees) at 13 MPH (11 knots; 5.7 m/s)
Visibility: 6 or more miles (10+ km)
Ceiling: at least 12,000 feet AGL
Clouds: few clouds at 2200 feet AGL
Weather: no significant weather observed at this time

METAR text: TNCM 221400Z 12011KT 080V170 9999 SCT022 28/20 Q1019 A3009 NOSIG
Conditions at: TNCM (ST MAARTEN JULIA, VI) observed 1400 UTC 22 March 2019
Temperature: 28.0°C (82°F)
Dewpoint: 20.0°C (68°F) [RH = 62%]
Pressure (altimeter): 30.09 inches Hg (1019.0 mb)
Winds: from the ESE (120 degrees) at 13 MPH (11 knots; 5.7 m/s)
Visibility: 6 or more miles (10+ km)
Ceiling: at least 12,000 feet AGL
Clouds: scattered clouds at 2200 feet AGL
Weather: no significant weather observed at this time

METAR text: TNCM 221300Z 10009KT 060V150 9999 SCT020 27/20 Q1018 A3008 NOSIG
Conditions at: TNCM (ST MAARTEN JULIA, VI) observed 1300 UTC 22 March 2019
Temperature: 27.0°C (81°F)
Dewpoint: 20.0°C (68°F) [RH = 66%]
Pressure (altimeter): 30.06 inches Hg (1018.0 mb)
Winds: from the E (100 degrees) at 10 MPH (9 knots; 4.6 m/s)
Visibility: 6 or more miles (10+ km)
Ceiling: at least 12,000 feet AGL
Clouds: scattered clouds at 2000 feet AGL
Weather: no significant weather observed at this time

METAR text: TNCM 221200Z 11010KT 070V150 9999 SCT018 26/20 Q1018 A3006 NOSIG
Conditions at: TNCM (ST MAARTEN JULIA, VI) observed 1200 UTC 22 March 2019
Temperature: 26.0°C (79°F)
Dewpoint: 20.0°C (68°F) [RH = 70%]
Pressure (altimeter): 30.06 inches Hg (1018.0 mb)
Winds: from the ESE (110 degrees) at 12 MPH (10 knots; 5.1 m/s)
Visibility: 6 or more miles (10+ km)
Ceiling: at least 12,000 feet AGL
Clouds: scattered clouds at 1800 feet AGL
Weather: no significant weather observed at this time

METAR text: TNCM 221100Z 10008KT 060V140 9999 FEW018 25/20 Q1017 A3003 NOSIG
Conditions at: TNCM (ST MAARTEN JULIA, VI) observed 1100 UTC 22 March 2019
Temperature: 25.0°C (77°F)
Dewpoint: 20.0°C (68°F) [RH = 74%]
Pressure (altimeter): 30.03 inches Hg (1017.0 mb)
Winds: from the E (100 degrees) at 9 MPH (8 knots; 4.1 m/s)
Visibility: 6 or more miles (10+ km)
Ceiling: at least 12,000 feet AGL
Clouds: few clouds at 1800 feet AGL
Weather: no significant weather observed at this time

Forecast for: TNCM (ST MAARTEN JULIA, VI)
Text: TNCM 232219Z 2322/2418 09009KT P6SM SCT022
Forecast period: 2200 UTC 23 March 2019 to 1800 UTC 24 March 2019
Forecast type: FROM: standard forecast or significant change
Winds: from the E (90 degrees) at 10 MPH (9 knots; 4.6 m/s)
Visibility: 6 or more miles 10+ km)
Ceiling: at least 12,000 feet AGL
Clouds: scattered clouds at 2200 feet AGL
Weather: no significant weather forecast for this period